sensor_id;sensor_type;location;lat;lon;timestamp;temperature;humidity
612;DHT22;293;53.888;11.464;2023-06-10T00:01:28;14.30;99.90
612;DHT22;293;53.888;11.464;2023-06-10T00:03:55;14.20;99.90
612;DHT22;293;53.888;11.464;2023-06-10T00:06:22;14.20;99.90
612;DHT22;293;53.888;11.464;2023-06-10T00:08:51;14.20;99.90
612;DHT22;293;53.888;11.464;2023-06-10T00:11:19;14.30;99.90
612;DHT22;293;53.888;11.464;2023-06-10T00:13:45;14.20;99.90
612;DHT22;293;53.888;11.464;2023-06-10T00:16:12;14.10;99.90
612;DHT22;293;53.888;11.464;2023-06-10T00:18:39;14.20;99.90
612;DHT22;293;53.888;11.464;2023-06-10T00:21:07;14.20;99.90
612;DHT22;293;53.888;11.464;2023-06-10T00:23:34;14.10;99.90
612;DHT22;293;53.888;11.464;2023-06-10T00:26:04;14.10;99.90
612;DHT22;293;53.888;11.464;2023-06-10T00:28:31;14.00;99.90
612;DHT22;293;53.888;11.464;2023-06-10T00:30:58;14.00;99.90
612;DHT22;293;53.888;11.464;2023-06-10T00:33:25;14.00;99.90
612;DHT22;293;53.888;11.464;2023-06-10T00:38:19;13.90;99.90
612;DHT22;293;53.888;11.464;2023-06-10T00:40:46;13.90;99.90
612;DHT22;293;53.888;11.464;2023-06-10T00:43:14;13.90;99.90
612;DHT22;293;53.888;11.464;2023-06-10T00:45:41;13.90;99.90
612;DHT22;293;53.888;11.464;2023-06-10T00:48:08;13.80;99.90
612;DHT22;293;53.888;11.464;2023-06-10T00:50:35;13.90;99.90
612;DHT22;293;53.888;11.464;2023-06-10T00:53:05;13.80;99.90
612;DHT22;293;53.888;11.464;2023-06-10T00:55:33;13.70;99.90
612;DHT22;293;53.888;11.464;2023-06-10T00:58:00;13.70;99.90
612;DHT22;293;53.888;11.464;2023-06-10T01:00:28;13.70;99.90
612;DHT22;293;53.888;11.464;2023-06-10T01:02:55;13.70;99.90
612;DHT22;293;53.888;11.464;2023-06-10T01:05:23;13.60;99.90
612;DHT22;293;53.888;11.464;2023-06-10T01:07:59;13.60;99.90
612;DHT22;293;53.888;11.464;2023-06-10T01:10:33;13.60;99.90
612;DHT22;293;53.888;11.464;2023-06-10T01:13:03;13.60;99.90
612;DHT22;293;53.888;11.464;2023-06-10T01:15:34;13.50;99.90
612;DHT22;293;53.888;11.464;2023-06-10T01:18:02;13.50;99.90
612;DHT22;293;53.888;11.464;2023-06-10T01:20:30;13.40;99.90
612;DHT22;293;53.888;11.464;2023-06-10T01:22:59;13.50;99.90
612;DHT22;293;53.888;11.464;2023-06-10T01:25:29;13.50;99.90
612;DHT22;293;53.888;11.464;2023-06-10T01:28:02;13.50;99.90
612;DHT22;293;53.888;11.464;2023-06-10T01:30:35;13.40;99.90
612;DHT22;293;53.888;11.464;2023-06-10T01:33:06;13.50;99.90
612;DHT22;293;53.888;11.464;2023-06-10T01:35:36;13.50;99.90
612;DHT22;293;53.888;11.464;2023-06-10T01:38:06;13.50;99.90
612;DHT22;293;53.888;11.464;2023-06-10T01:40:34;13.50;99.90
612;DHT22;293;53.888;11.464;2023-06-10T01:43:01;13.50;99.90
612;DHT22;293;53.888;11.464;2023-06-10T01:45:28;13.50;99.90
612;DHT22;293;53.888;11.464;2023-06-10T01:47:55;13.40;99.90
612;DHT22;293;53.888;11.464;2023-06-10T01:50:22;13.40;99.90
612;DHT22;293;53.888;11.464;2023-06-10T01:55:17;13.40;99.90
612;DHT22;293;53.888;11.464;2023-06-10T01:57:44;13.40;99.90
612;DHT22;293;53.888;11.464;2023-06-10T02:00:12;13.40;99.90
612;DHT22;293;53.888;11.464;2023-06-10T02:02:39;13.50;99.90
612;DHT22;293;53.888;11.464;2023-06-10T02:05:07;13.40;99.90
612;DHT22;293;53.888;11.464;2023-06-10T02:07:34;13.40;99.90
612;DHT22;293;53.888;11.464;2023-06-10T02:10:00;13.40;99.90
612;DHT22;293;53.888;11.464;2023-06-10T02:12:29;13.40;99.90
612;DHT22;293;53.888;11.464;2023-06-10T02:14:56;13.30;99.90
612;DHT22;293;53.888;11.464;2023-06-10T02:17:23;13.40;99.90
612;DHT22;293;53.888;11.464;2023-06-10T02:19:50;13.40;99.90
612;DHT22;293;53.888;11.464;2023-06-10T02:22:20;13.40;99.90
612;DHT22;293;53.888;11.464;2023-06-10T02:24:47;13.40;99.90
612;DHT22;293;53.888;11.464;2023-06-10T02:27:14;13.30;99.90
612;DHT22;293;53.888;11.464;2023-06-10T02:29:43;13.30;99.90
612;DHT22;293;53.888;11.464;2023-06-10T02:32:10;13.30;99.90
612;DHT22;293;53.888;11.464;2023-06-10T02:34:37;13.30;99.90
612;DHT22;293;53.888;11.464;2023-06-10T02:37:04;13.30;99.90
612;DHT22;293;53.888;11.464;2023-06-10T02:39:31;13.30;99.90
612;DHT22;293;53.888;11.464;2023-06-10T02:41:58;13.30;99.90
612;DHT22;293;53.888;11.464;2023-06-10T02:44:25;13.30;99.90
612;DHT22;293;53.888;11.464;2023-06-10T02:46:53;13.30;99.90
612;DHT22;293;53.888;11.464;2023-06-10T02:49:20;13.30;99.90
612;DHT22;293;53.888;11.464;2023-06-10T02:51:47;13.40;99.90
612;DHT22;293;53.888;11.464;2023-06-10T02:54:13;13.40;99.90
612;DHT22;293;53.888;11.464;2023-06-10T02:56:42;13.40;99.90
612;DHT22;293;53.888;11.464;2023-06-10T02:59:08;13.40;99.90
612;DHT22;293;53.888;11.464;2023-06-10T03:01:36;13.40;99.90
612;DHT22;293;53.888;11.464;2023-06-10T03:04:04;13.50;99.90
612;DHT22;293;53.888;11.464;2023-06-10T03:06:31;13.50;99.90
612;DHT22;293;53.888;11.464;2023-06-10T03:09:00;13.50;99.90
612;DHT22;293;53.888;11.464;2023-06-10T03:11:26;13.60;99.90
612;DHT22;293;53.888;11.464;2023-06-10T03:13:54;13.60;99.90
612;DHT22;293;53.888;11.464;2023-06-10T03:16:20;13.70;99.90
612;DHT22;293;53.888;11.464;2023-06-10T03:18:48;13.70;99.90
612;DHT22;293;53.888;11.464;2023-06-10T03:21:16;13.70;99.90
612;DHT22;293;53.888;11.464;2023-06-10T03:23:43;13.80;99.90
612;DHT22;293;53.888;11.464;2023-06-10T03:26:11;13.90;99.90
612;DHT22;293;53.888;11.464;2023-06-10T03:28:40;13.90;99.90
612;DHT22;293;53.888;11.464;2023-06-10T03:31:07;14.00;99.90
612;DHT22;293;53.888;11.464;2023-06-10T03:33:34;14.10;99.90
612;DHT22;293;53.888;11.464;2023-06-10T03:36:01;14.20;99.90
612;DHT22;293;53.888;11.464;2023-06-10T03:38:29;14.30;99.90
612;DHT22;293;53.888;11.464;2023-06-10T03:40:56;15.50;99.90
612;DHT22;293;53.888;11.464;2023-06-10T03:43:23;15.60;99.90
612;DHT22;293;53.888;11.464;2023-06-10T03:45:50;16.50;99.90
612;DHT22;293;53.888;11.464;2023-06-10T03:48:17;17.10;99.90
612;DHT22;293;53.888;11.464;2023-06-10T03:50:44;17.60;99.90
612;DHT22;293;53.888;11.464;2023-06-10T03:53:13;18.20;99.90
612;DHT22;293;53.888;11.464;2023-06-10T03:55:41;19.00;99.90
612;DHT22;293;53.888;11.464;2023-06-10T03:58:08;19.70;97.90
612;DHT22;293;53.888;11.464;2023-06-10T04:00:35;20.40;96.20
612;DHT22;293;53.888;11.464;2023-06-10T04:03:07;21.00;94.70
612;DHT22;293;53.888;11.464;2023-06-10T04:05:39;21.60;93.20
612;DHT22;293;53.888;11.464;2023-06-10T04:08:09;22.50;90.90
612;DHT22;293;53.888;11.464;2023-06-10T04:10:36;22.50;91.10
612;DHT22;293;53.888;11.464;2023-06-10T04:13:04;23.00;90.10
612;DHT22;293;53.888;11.464;2023-06-10T04:15:31;23.50;88.90
612;DHT22;293;53.888;11.464;2023-06-10T04:17:59;23.90;85.70
612;DHT22;293;53.888;11.464;2023-06-10T04:20:26;24.00;84.50
612;DHT22;293;53.888;11.464;2023-06-10T04:22:53;24.40;84.60
612;DHT22;293;53.888;11.464;2023-06-10T04:25:20;24.90;83.60
612;DHT22;293;53.888;11.464;2023-06-10T04:27:47;25.30;82.50
612;DHT22;293;53.888;11.464;2023-06-10T04:30:16;25.40;79.90
612;DHT22;293;53.888;11.464;2023-06-10T04:32:43;25.60;79.90
612;DHT22;293;53.888;11.464;2023-06-10T04:35:12;26.00;78.80
612;DHT22;293;53.888;11.464;2023-06-10T04:37:39;26.40;75.60
612;DHT22;293;53.888;11.464;2023-06-10T04:40:08;26.60;74.70
612;DHT22;293;53.888;11.464;2023-06-10T04:42:35;26.90;73.80
612;DHT22;293;53.888;11.464;2023-06-10T04:45:02;27.10;73.10
612;DHT22;293;53.888;11.464;2023-06-10T04:47:30;27.30;72.70
612;DHT22;293;53.888;11.464;2023-06-10T04:49:58;27.60;71.50
612;DHT22;293;53.888;11.464;2023-06-10T04:52:25;27.70;70.10
612;DHT22;293;53.888;11.464;2023-06-10T04:54:52;27.80;70.70
612;DHT22;293;53.888;11.464;2023-06-10T04:57:19;27.90;69.80
612;DHT22;293;53.888;11.464;2023-06-10T04:59:46;27.70;69.10
612;DHT22;293;53.888;11.464;2023-06-10T05:02:13;27.60;69.90
612;DHT22;293;53.888;11.464;2023-06-10T05:04:42;27.80;70.10
612;DHT22;293;53.888;11.464;2023-06-10T05:07:08;28.00;69.10
612;DHT22;293;53.888;11.464;2023-06-10T05:09:35;28.40;69.50
612;DHT22;293;53.888;11.464;2023-06-10T05:14:30;29.60;65.40
612;DHT22;293;53.888;11.464;2023-06-10T05:16:57;30.30;64.60
612;DHT22;293;53.888;11.464;2023-06-10T05:19:24;31.00;63.40
612;DHT22;293;53.888;11.464;2023-06-10T05:21:52;31.90;61.60
612;DHT22;293;53.888;11.464;2023-06-10T05:24:19;32.70;58.30
612;DHT22;293;53.888;11.464;2023-06-10T05:26:46;33.20;57.50
612;DHT22;293;53.888;11.464;2023-06-10T05:29:14;33.70;56.80
612;DHT22;293;53.888;11.464;2023-06-10T05:31:41;34.20;55.00
612;DHT22;293;53.888;11.464;2023-06-10T05:34:08;34.70;54.00
612;DHT22;293;53.888;11.464;2023-06-10T05:36:35;35.20;53.50
612;DHT22;293;53.888;11.464;2023-06-10T05:39:04;35.60;52.00
612;DHT22;293;53.888;11.464;2023-06-10T05:41:31;35.70;51.70
612;DHT22;293;53.888;11.464;2023-06-10T05:43:57;35.90;50.50
612;DHT22;293;53.888;11.464;2023-06-10T05:46:24;36.00;50.30
612;DHT22;293;53.888;11.464;2023-06-10T05:48:51;35.90;50.30
612;DHT22;293;53.888;11.464;2023-06-10T05:51:18;35.90;49.50
612;DHT22;293;53.888;11.464;2023-06-10T05:53:45;35.40;50.00
612;DHT22;293;53.888;11.464;2023-06-10T05:56:13;34.70;51.20
612;DHT22;293;53.888;11.464;2023-06-10T05:58:40;34.40;51.30
612;DHT22;293;53.888;11.464;2023-06-10T06:01:07;34.10;51.50
612;DHT22;293;53.888;11.464;2023-06-10T06:03:34;34.20;51.50
612;DHT22;293;53.888;11.464;2023-06-10T06:06:01;34.20;51.30
612;DHT22;293;53.888;11.464;2023-06-10T06:08:28;33.70;52.50
612;DHT22;293;53.888;11.464;2023-06-10T06:10:54;34.30;52.50
612;DHT22;293;53.888;11.464;2023-06-10T06:13:23;34.30;52.90
612;DHT22;293;53.888;11.464;2023-06-10T06:15:50;34.50;51.50
612;DHT22;293;53.888;11.464;2023-06-10T06:18:17;34.50;51.20
612;DHT22;293;53.888;11.464;2023-06-10T06:20:44;34.20;51.80
612;DHT22;293;53.888;11.464;2023-06-10T06:23:11;34.40;51.40
612;DHT22;293;53.888;11.464;2023-06-10T06:25:39;34.60;51.20
612;DHT22;293;53.888;11.464;2023-06-10T06:28:06;34.40;51.20
612;DHT22;293;53.888;11.464;2023-06-10T06:30:34;34.00;51.60
612;DHT22;293;53.888;11.464;2023-06-10T06:33:01;33.70;52.40
612;DHT22;293;53.888;11.464;2023-06-10T06:35:30;33.70;53.20
612;DHT22;293;53.888;11.464;2023-06-10T06:37:57;34.20;51.80
612;DHT22;293;53.888;11.464;2023-06-10T06:40:24;34.20;51.40
612;DHT22;293;53.888;11.464;2023-06-10T06:42:51;34.10;51.50
612;DHT22;293;53.888;11.464;2023-06-10T06:45:18;33.50;52.20
612;DHT22;293;53.888;11.464;2023-06-10T06:47:46;33.10;53.60
612;DHT22;293;53.888;11.464;2023-06-10T06:50:13;33.00;53.30
612;DHT22;293;53.888;11.464;2023-06-10T06:52:40;32.70;54.40
612;DHT22;293;53.888;11.464;2023-06-10T06:55:08;32.80;54.30
612;DHT22;293;53.888;11.464;2023-06-10T06:57:34;32.40;54.60
612;DHT22;293;53.888;11.464;2023-06-10T07:00:04;31.30;55.50
612;DHT22;293;53.888;11.464;2023-06-10T07:02:31;30.30;58.50
612;DHT22;293;53.888;11.464;2023-06-10T07:05:00;29.30;59.20
612;DHT22;293;53.888;11.464;2023-06-10T07:07:27;28.20;61.30
612;DHT22;293;53.888;11.464;2023-06-10T07:09:54;26.80;65.80
612;DHT22;293;53.888;11.464;2023-06-10T07:12:20;26.10;67.50
612;DHT22;293;53.888;11.464;2023-06-10T07:14:49;25.60;69.00
612;DHT22;293;53.888;11.464;2023-06-10T07:17:16;25.10;70.80
612;DHT22;293;53.888;11.464;2023-06-10T07:19:43;24.60;72.30
612;DHT22;293;53.888;11.464;2023-06-10T07:22:11;24.30;74.10
612;DHT22;293;53.888;11.464;2023-06-10T07:24:38;24.00;74.90
612;DHT22;293;53.888;11.464;2023-06-10T07:27:05;23.60;76.50
612;DHT22;293;53.888;11.464;2023-06-10T07:29:32;23.30;77.70
612;DHT22;293;53.888;11.464;2023-06-10T07:32:02;22.80;79.20
612;DHT22;293;53.888;11.464;2023-06-10T07:34:29;22.60;81.30
612;DHT22;293;53.888;11.464;2023-06-10T07:36:56;22.60;81.40
612;DHT22;293;53.888;11.464;2023-06-10T07:39:24;22.50;81.80
612;DHT22;293;53.888;11.464;2023-06-10T07:41:51;22.10;83.00
612;DHT22;293;53.888;11.464;2023-06-10T07:44:19;22.00;84.60
612;DHT22;293;53.888;11.464;2023-06-10T07:46:46;22.10;85.90
612;DHT22;293;53.888;11.464;2023-06-10T07:49:13;22.20;86.10
612;DHT22;293;53.888;11.464;2023-06-10T07:51:40;22.20;85.60
612;DHT22;293;53.888;11.464;2023-06-10T07:54:07;22.20;86.00
612;DHT22;293;53.888;11.464;2023-06-10T07:56:35;22.20;86.30
612;DHT22;293;53.888;11.464;2023-06-10T07:59:02;22.30;87.50
612;DHT22;293;53.888;11.464;2023-06-10T08:01:29;22.30;88.00
612;DHT22;293;53.888;11.464;2023-06-10T08:03:57;22.40;87.30
612;DHT22;293;53.888;11.464;2023-06-10T08:06:23;22.50;87.50
612;DHT22;293;53.888;11.464;2023-06-10T08:08:50;22.60;88.00
612;DHT22;293;53.888;11.464;2023-06-10T08:11:17;22.80;87.20
612;DHT22;293;53.888;11.464;2023-06-10T08:13:45;22.90;87.50
612;DHT22;293;53.888;11.464;2023-06-10T08:16:12;23.00;87.00
612;DHT22;293;53.888;11.464;2023-06-10T08:18:40;23.00;86.50
612;DHT22;293;53.888;11.464;2023-06-10T08:21:06;23.00;86.70
612;DHT22;293;53.888;11.464;2023-06-10T08:23:33;22.90;86.50
612;DHT22;293;53.888;11.464;2023-06-10T08:26:00;22.90;86.70
612;DHT22;293;53.888;11.464;2023-06-10T08:28:27;22.90;87.10
612;DHT22;293;53.888;11.464;2023-06-10T08:30:55;22.90;87.50
612;DHT22;293;53.888;11.464;2023-06-10T08:33:22;22.90;88.00
612;DHT22;293;53.888;11.464;2023-06-10T08:35:49;22.90;88.00
612;DHT22;293;53.888;11.464;2023-06-10T08:38:16;23.00;87.80
612;DHT22;293;53.888;11.464;2023-06-10T08:40:43;23.10;88.10
612;DHT22;293;53.888;11.464;2023-06-10T08:43:17;23.20;87.90
612;DHT22;293;53.888;11.464;2023-06-10T08:45:48;23.20;88.30
612;DHT22;293;53.888;11.464;2023-06-10T08:48:17;23.20;87.80
612;DHT22;293;53.888;11.464;2023-06-10T08:50:46;23.20;88.90
612;DHT22;293;53.888;11.464;2023-06-10T08:53:18;23.20;88.40
612;DHT22;293;53.888;11.464;2023-06-10T08:55:50;23.30;87.70
612;DHT22;293;53.888;11.464;2023-06-10T08:58:17;23.30;88.10
612;DHT22;293;53.888;11.464;2023-06-10T09:00:44;23.30;87.90
612;DHT22;293;53.888;11.464;2023-06-10T09:03:12;23.30;88.20
612;DHT22;293;53.888;11.464;2023-06-10T09:05:41;23.30;88.50
612;DHT22;293;53.888;11.464;2023-06-10T09:08:08;23.30;87.80
612;DHT22;293;53.888;11.464;2023-06-10T09:10:35;23.40;88.00
612;DHT22;293;53.888;11.464;2023-06-10T09:13:02;23.50;88.20
612;DHT22;293;53.888;11.464;2023-06-10T09:15:29;23.50;87.10
612;DHT22;293;53.888;11.464;2023-06-10T09:17:56;23.50;87.30
612;DHT22;293;53.888;11.464;2023-06-10T09:20:23;23.60;87.70
612;DHT22;293;53.888;11.464;2023-06-10T09:22:51;23.70;87.50
612;DHT22;293;53.888;11.464;2023-06-10T09:25:18;23.80;88.10
612;DHT22;293;53.888;11.464;2023-06-10T09:27:46;24.00;88.60
612;DHT22;293;53.888;11.464;2023-06-10T09:30:34;24.10;87.60
612;DHT22;293;53.888;11.464;2023-06-10T09:33:02;24.30;86.60
612;DHT22;293;53.888;11.464;2023-06-10T09:35:31;24.40;87.20
612;DHT22;293;53.888;11.464;2023-06-10T09:38:00;24.50;85.50
612;DHT22;293;53.888;11.464;2023-06-10T09:40:28;24.60;85.50
612;DHT22;293;53.888;11.464;2023-06-10T09:42:56;24.60;86.20
612;DHT22;293;53.888;11.464;2023-06-10T09:45:28;24.60;85.60
612;DHT22;293;53.888;11.464;2023-06-10T09:47:55;24.70;85.60
612;DHT22;293;53.888;11.464;2023-06-10T09:50:22;24.80;84.80
612;DHT22;293;53.888;11.464;2023-06-10T09:52:50;24.90;85.40
612;DHT22;293;53.888;11.464;2023-06-10T09:55:19;25.00;84.20
612;DHT22;293;53.888;11.464;2023-06-10T09:57:49;25.00;84.20
612;DHT22;293;53.888;11.464;2023-06-10T10:00:16;25.00;85.10
612;DHT22;293;53.888;11.464;2023-06-10T10:02:45;25.00;84.80
612;DHT22;293;53.888;11.464;2023-06-10T10:05:13;25.00;83.10
612;DHT22;293;53.888;11.464;2023-06-10T10:07:41;25.00;84.10
612;DHT22;293;53.888;11.464;2023-06-10T10:10:08;25.10;83.40
612;DHT22;293;53.888;11.464;2023-06-10T10:12:38;25.20;82.80
612;DHT22;293;53.888;11.464;2023-06-10T10:15:06;25.20;82.20
612;DHT22;293;53.888;11.464;2023-06-10T10:17:34;25.20;81.00
612;DHT22;293;53.888;11.464;2023-06-10T10:20:05;25.20;83.00
612;DHT22;293;53.888;11.464;2023-06-10T10:22:37;25.20;82.60
612;DHT22;293;53.888;11.464;2023-06-10T10:25:10;25.20;82.20
612;DHT22;293;53.888;11.464;2023-06-10T10:27:43;25.30;82.00
612;DHT22;293;53.888;11.464;2023-06-10T10:30:11;25.30;82.60
612;DHT22;293;53.888;11.464;2023-06-10T10:32:43;25.40;82.40
612;DHT22;293;53.888;11.464;2023-06-10T10:35:17;25.50;81.20
612;DHT22;293;53.888;11.464;2023-06-10T10:37:44;25.60;81.10
612;DHT22;293;53.888;11.464;2023-06-10T10:40:12;25.50;80.90
612;DHT22;293;53.888;11.464;2023-06-10T10:42:42;25.50;81.20
612;DHT22;293;53.888;11.464;2023-06-10T10:45:10;25.40;82.20
612;DHT22;293;53.888;11.464;2023-06-10T10:47:37;25.50;83.00
612;DHT22;293;53.888;11.464;2023-06-10T10:50:14;25.50;80.40
612;DHT22;293;53.888;11.464;2023-06-10T10:52:51;25.60;80.50
612;DHT22;293;53.888;11.464;2023-06-10T10:55:19;25.60;80.40
612;DHT22;293;53.888;11.464;2023-06-10T10:57:56;25.70;79.90
612;DHT22;293;53.888;11.464;2023-06-10T11:00:28;25.70;80.10
612;DHT22;293;53.888;11.464;2023-06-10T11:02:58;25.80;80.30
612;DHT22;293;53.888;11.464;2023-06-10T11:05:36;25.80;80.00
612;DHT22;293;53.888;11.464;2023-06-10T11:08:03;25.80;80.00
612;DHT22;293;53.888;11.464;2023-06-10T11:10:31;25.80;80.60
612;DHT22;293;53.888;11.464;2023-06-10T11:13:00;25.80;80.80
612;DHT22;293;53.888;11.464;2023-06-10T11:15:32;25.80;80.10
612;DHT22;293;53.888;11.464;2023-06-10T11:18:22;25.80;78.80
612;DHT22;293;53.888;11.464;2023-06-10T11:20:54;25.80;80.30
612;DHT22;293;53.888;11.464;2023-06-10T11:23:37;25.90;79.50
612;DHT22;293;53.888;11.464;2023-06-10T11:26:29;25.90;79.30
612;DHT22;293;53.888;11.464;2023-06-10T11:29:04;26.00;80.80
612;DHT22;293;53.888;11.464;2023-06-10T11:31:32;26.00;80.80
612;DHT22;293;53.888;11.464;2023-06-10T11:34:00;26.10;80.20
612;DHT22;293;53.888;11.464;2023-06-10T11:36:29;26.20;79.10
612;DHT22;293;53.888;11.464;2023-06-10T11:38:57;26.20;79.70
612;DHT22;293;53.888;11.464;2023-06-10T11:41:24;26.20;79.80
612;DHT22;293;53.888;11.464;2023-06-10T11:43:52;26.20;80.00
612;DHT22;293;53.888;11.464;2023-06-10T11:46:21;26.20;78.60
612;DHT22;293;53.888;11.464;2023-06-10T11:48:52;26.30;78.90
612;DHT22;293;53.888;11.464;2023-06-10T11:51:19;26.30;78.40
612;DHT22;293;53.888;11.464;2023-06-10T11:53:47;26.30;78.80
612;DHT22;293;53.888;11.464;2023-06-10T11:56:19;26.30;77.90
612;DHT22;293;53.888;11.464;2023-06-10T11:58:52;26.20;77.10
612;DHT22;293;53.888;11.464;2023-06-10T12:01:21;26.10;78.80
612;DHT22;293;53.888;11.464;2023-06-10T12:03:56;26.00;78.20
612;DHT22;293;53.888;11.464;2023-06-10T12:06:23;26.10;77.40
612;DHT22;293;53.888;11.464;2023-06-10T12:08:50;26.10;77.80
612;DHT22;293;53.888;11.464;2023-06-10T12:11:17;26.20;77.80
612;DHT22;293;53.888;11.464;2023-06-10T12:13:48;26.30;77.40
612;DHT22;293;53.888;11.464;2023-06-10T12:16:16;26.30;77.50
612;DHT22;293;53.888;11.464;2023-06-10T12:18:46;26.20;78.00
612;DHT22;293;53.888;11.464;2023-06-10T12:21:18;26.30;78.40
612;DHT22;293;53.888;11.464;2023-06-10T12:24:08;26.30;77.00
612;DHT22;293;53.888;11.464;2023-06-10T12:26:39;26.30;76.60
612;DHT22;293;53.888;11.464;2023-06-10T12:29:16;26.30;76.10
612;DHT22;293;53.888;11.464;2023-06-10T12:32:00;26.20;75.30
612;DHT22;293;53.888;11.464;2023-06-10T12:34:38;26.20;76.20
612;DHT22;293;53.888;11.464;2023-06-10T12:37:06;26.20;77.10
612;DHT22;293;53.888;11.464;2023-06-10T12:39:33;26.30;76.70
612;DHT22;293;53.888;11.464;2023-06-10T12:42:01;26.40;75.40
612;DHT22;293;53.888;11.464;2023-06-10T12:44:32;26.50;75.10
612;DHT22;293;53.888;11.464;2023-06-10T12:47:00;26.50;75.90
612;DHT22;293;53.888;11.464;2023-06-10T12:49:27;26.50;74.70
612;DHT22;293;53.888;11.464;2023-06-10T12:51:55;26.50;75.00
612;DHT22;293;53.888;11.464;2023-06-10T12:54:22;26.40;75.20
612;DHT22;293;53.888;11.464;2023-06-10T12:56:49;26.50;75.60
612;DHT22;293;53.888;11.464;2023-06-10T12:59:16;26.50;75.00
612;DHT22;293;53.888;11.464;2023-06-10T13:01:43;26.50;75.10
612;DHT22;293;53.888;11.464;2023-06-10T13:04:10;26.60;75.20
612;DHT22;293;53.888;11.464;2023-06-10T13:06:37;26.50;75.10
612;DHT22;293;53.888;11.464;2023-06-10T13:09:06;26.50;75.40
612;DHT22;293;53.888;11.464;2023-06-10T13:11:34;26.50;75.50
612;DHT22;293;53.888;11.464;2023-06-10T13:14:02;26.60;76.10
612;DHT22;293;53.888;11.464;2023-06-10T13:16:30;26.60;76.40
612;DHT22;293;53.888;11.464;2023-06-10T13:18:58;26.60;76.70
612;DHT22;293;53.888;11.464;2023-06-10T13:21:26;26.60;76.70
612;DHT22;293;53.888;11.464;2023-06-10T13:23:53;26.70;77.20
612;DHT22;293;53.888;11.464;2023-06-10T13:26:21;26.60;77.50
612;DHT22;293;53.888;11.464;2023-06-10T13:28:49;26.70;76.70
612;DHT22;293;53.888;11.464;2023-06-10T13:31:16;26.70;75.90
612;DHT22;293;53.888;11.464;2023-06-10T13:33:43;26.70;76.00
612;DHT22;293;53.888;11.464;2023-06-10T13:36:10;26.70;76.50
612;DHT22;293;53.888;11.464;2023-06-10T13:38:37;26.70;77.00
612;DHT22;293;53.888;11.464;2023-06-10T13:41:04;27.60;77.30
612;DHT22;293;53.888;11.464;2023-06-10T13:43:33;26.80;77.00
612;DHT22;293;53.888;11.464;2023-06-10T13:46:00;26.80;77.30
612;DHT22;293;53.888;11.464;2023-06-10T13:48:27;26.70;77.00
612;DHT22;293;53.888;11.464;2023-06-10T13:50:54;26.70;77.10
612;DHT22;293;53.888;11.464;2023-06-10T13:53:21;26.70;77.30
612;DHT22;293;53.888;11.464;2023-06-10T13:55:48;26.70;76.20
612;DHT22;293;53.888;11.464;2023-06-10T13:58:15;26.70;76.80
612;DHT22;293;53.888;11.464;2023-06-10T14:00:43;26.70;77.50
612;DHT22;293;53.888;11.464;2023-06-10T14:03:11;26.70;77.10
612;DHT22;293;53.888;11.464;2023-06-10T14:05:38;26.70;77.50
612;DHT22;293;53.888;11.464;2023-06-10T14:08:05;26.60;77.10
612;DHT22;293;53.888;11.464;2023-06-10T14:10:31;26.60;77.50
612;DHT22;293;53.888;11.464;2023-06-10T14:12:58;26.50;76.40
612;DHT22;293;53.888;11.464;2023-06-10T14:15:25;26.50;77.30
612;DHT22;293;53.888;11.464;2023-06-10T14:17:54;26.60;77.80
612;DHT22;293;53.888;11.464;2023-06-10T14:20:21;26.70;77.20
612;DHT22;293;53.888;11.464;2023-06-10T14:22:47;26.70;75.80
612;DHT22;293;53.888;11.464;2023-06-10T14:25:14;26.80;76.60
612;DHT22;293;53.888;11.464;2023-06-10T14:27:41;26.80;77.30
612;DHT22;293;53.888;11.464;2023-06-10T14:30:08;26.80;76.90
612;DHT22;293;53.888;11.464;2023-06-10T14:32:35;26.80;76.20
612;DHT22;293;53.888;11.464;2023-06-10T14:35:04;26.90;76.80
612;DHT22;293;53.888;11.464;2023-06-10T14:37:31;26.90;76.50
612;DHT22;293;53.888;11.464;2023-06-10T14:39:58;26.80;76.00
612;DHT22;293;53.888;11.464;2023-06-10T14:42:25;26.90;75.30
612;DHT22;293;53.888;11.464;2023-06-10T14:44:52;26.70;76.20
612;DHT22;293;53.888;11.464;2023-06-10T14:47:19;26.70;75.30
612;DHT22;293;53.888;11.464;2023-06-10T14:49:46;26.70;74.80
612;DHT22;293;53.888;11.464;2023-06-10T14:52:14;26.70;75.30
612;DHT22;293;53.888;11.464;2023-06-10T14:54:41;26.50;75.10
612;DHT22;293;53.888;11.464;2023-06-10T14:57:07;26.50;75.10
612;DHT22;293;53.888;11.464;2023-06-10T14:59:36;26.40;74.90
612;DHT22;293;53.888;11.464;2023-06-10T15:02:03;26.40;75.30
612;DHT22;293;53.888;11.464;2023-06-10T15:04:30;26.40;74.90
612;DHT22;293;53.888;11.464;2023-06-10T15:06:56;26.40;74.50
612;DHT22;293;53.888;11.464;2023-06-10T15:09:25;26.30;75.80
612;DHT22;293;53.888;11.464;2023-06-10T15:11:52;26.30;75.10
612;DHT22;293;53.888;11.464;2023-06-10T15:14:18;26.30;74.70
612;DHT22;293;53.888;11.464;2023-06-10T15:16:45;26.20;74.70
612;DHT22;293;53.888;11.464;2023-06-10T15:19:12;26.10;74.90
612;DHT22;293;53.888;11.464;2023-06-10T15:21:39;26.20;74.90
612;DHT22;293;53.888;11.464;2023-06-10T15:24:06;26.20;74.50
612;DHT22;293;53.888;11.464;2023-06-10T15:26:35;26.10;74.80
612;DHT22;293;53.888;11.464;2023-06-10T15:29:02;26.10;75.10
612;DHT22;293;53.888;11.464;2023-06-10T15:31:30;26.10;75.40
612;DHT22;293;53.888;11.464;2023-06-10T15:33:57;26.20;74.70
612;DHT22;293;53.888;11.464;2023-06-10T15:36:25;26.20;74.20
612;DHT22;293;53.888;11.464;2023-06-10T15:38:52;26.10;74.00
612;DHT22;293;53.888;11.464;2023-06-10T15:41:19;26.10;74.30
612;DHT22;293;53.888;11.464;2023-06-10T15:43:48;26.10;75.30
612;DHT22;293;53.888;11.464;2023-06-10T15:46:15;26.00;74.30
612;DHT22;293;53.888;11.464;2023-06-10T15:48:42;26.00;74.20
612;DHT22;293;53.888;11.464;2023-06-10T15:51:09;25.90;74.00
612;DHT22;293;53.888;11.464;2023-06-10T15:53:36;25.90;73.60
612;DHT22;293;53.888;11.464;2023-06-10T15:56:03;25.80;74.30
612;DHT22;293;53.888;11.464;2023-06-10T15:58:30;25.80;74.00
612;DHT22;293;53.888;11.464;2023-06-10T16:00:58;25.80;73.80
612;DHT22;293;53.888;11.464;2023-06-10T16:03:25;25.70;74.20
612;DHT22;293;53.888;11.464;2023-06-10T16:05:52;25.60;74.50
612;DHT22;293;53.888;11.464;2023-06-10T16:08:19;25.60;75.40
612;DHT22;293;53.888;11.464;2023-06-10T16:10:46;25.60;75.70
612;DHT22;293;53.888;11.464;2023-06-10T16:13:13;25.40;74.50
612;DHT22;293;53.888;11.464;2023-06-10T16:15:40;25.40;75.10
612;DHT22;293;53.888;11.464;2023-06-10T16:18:08;25.30;75.70
612;DHT22;293;53.888;11.464;2023-06-10T16:20:35;25.20;74.70
612;DHT22;293;53.888;11.464;2023-06-10T16:23:02;25.10;74.30
612;DHT22;293;53.888;11.464;2023-06-10T16:25:29;25.00;75.30
612;DHT22;293;53.888;11.464;2023-06-10T16:27:56;25.00;73.60
612;DHT22;293;53.888;11.464;2023-06-10T16:30:23;24.90;73.20